Time;durP1;ratioP1;P1;durP2;ratioP2;P2;SDS_P1;SDS_P2;PMS_P1;PMS_P2;Temp;Humidity;BMP_temperature;BMP_pressure;BME280_temperature;BME280_humidity;BME280_pressure;Samples;Min_cycle;Max_cycle;Signal;HPM_P1;HPM_P2
2020/12/06 00:01:17;;;;;;;8.53;7.10;;;4.20;99.90;;;;;;5018109;28;20219;-91
2020/12/06 00:03:45;;;;;;;8.53;7.80;;;4.30;99.90;;;;;;5033020;28;20202;-92
2020/12/06 00:06:14;;;;;;;13.73;8.60;;;4.30;99.90;;;;;;5038946;28;20167;-90
2020/12/06 00:08:42;;;;;;;8.97;7.43;;;4.20;99.90;;;;;;5038760;28;20250;-90
2020/12/06 00:11:08;;;;;;;8.73;7.73;;;4.10;99.90;;;;;;5037539;28;20182;-90
2020/12/06 00:13:45;;;;;;;;;;;;;;;;;;;;;
2020/12/06 00:16:17;;;;;;;9.00;7.80;;;3.90;99.90;;;;;;5037981;28;20206;-91
2020/12/06 00:18:45;;;;;;;10.90;7.60;;;4.00;99.90;;;;;;5035893;28;20187;-90
2020/12/06 00:21:16;;;;;;;8.33;7.53;;;4.20;99.90;;;;;;5036612;28;20172;-91
2020/12/06 00:23:46;;;;;;;10.47;8.00;;;4.30;99.90;;;;;;5037694;28;20168;-89
2020/12/06 00:26:23;;;;;;;8.77;7.87;;;4.30;99.90;;;;;;5022193;28;20652;-89
2020/12/06 00:28:51;;;;;;;8.37;7.53;;;4.30;99.90;;;;;;5036794;28;20279;-90
2020/12/06 00:31:17;;;;;;;9.77;8.40;;;4.10;99.90;;;;;;5035939;28;20226;-91
2020/12/06 00:33:44;;;;;;;9.07;7.83;;;3.80;99.90;;;;;;5019674;28;20533;-90
2020/12/06 00:36:11;;;;;;;9.17;6.83;;;3.60;99.90;;;;;;5035823;28;20199;-90
2020/12/06 00:38:37;;;;;;;12.77;8.17;;;3.70;99.90;;;;;;5035566;28;20183;-90
2020/12/06 00:41:14;;;;;;;10.83;8.20;;;3.90;99.90;;;;;;5035659;28;20251;-90
2020/12/06 00:43:43;;;;;;;13.27;8.63;;;3.80;99.90;;;;;;5036470;28;20194;-91
2020/12/06 00:46:10;;;;;;;10.03;7.87;;;3.60;99.90;;;;;;5019650;28;20191;-89
2020/12/06 00:48:38;;;;;;;10.63;8.23;;;3.40;99.90;;;;;;5036709;28;20180;-90
2020/12/06 00:51:08;;;;;;;9.17;7.87;;;3.20;99.90;;;;;;5036680;28;20168;-90
2020/12/06 00:53:34;;;;;;;8.97;8.17;;;3.30;99.90;;;;;;5036951;28;20176;-90
2020/12/06 00:56:08;;;;;;;10.63;8.33;;;3.30;99.90;;;;;;5037523;28;20208;-90
2020/12/06 00:58:52;;;;;;;9.00;8.10;;;3.20;99.90;;;;;;4997696;28;20182;-89
2020/12/06 01:04:57;;;;;;;10.80;7.83;;;3.10;99.90;;;;;;4995870;28;20188;-88
2020/12/06 01:07:44;;;;;;;10.17;8.27;;;3.00;99.90;;;;;;4961708;28;20718;-89
2020/12/06 01:13:33;;;;;;;10.17;8.33;;;3.00;99.90;;;;;;4995646;28;20244;-89
2020/12/06 01:15:59;;;;;;;10.00;8.67;;;3.30;99.90;;;;;;4982822;28;20205;-90
2020/12/06 01:18:27;;;;;;;16.40;7.57;;;3.40;99.90;;;;;;4981237;28;20187;-90
2020/12/06 01:20:53;;;;;;;13.33;8.60;;;3.40;99.90;;;;;;5022025;28;20184;-90
2020/12/06 01:23:22;;;;;;;9.50;8.53;;;3.20;99.90;;;;;;5040951;28;20172;-90
2020/12/06 01:25:48;;;;;;;9.77;8.77;;;3.20;99.90;;;;;;5022013;28;20271;-90
2020/12/06 01:28:14;;;;;;;8.60;7.80;;;3.40;99.90;;;;;;5037728;28;20179;-90
2020/12/06 01:30:40;;;;;;;9.73;8.70;;;3.50;99.90;;;;;;5054158;28;20216;-88
2020/12/06 01:33:07;;;;;;;12.17;8.00;;;3.40;99.90;;;;;;5060347;28;20210;-90
2020/12/06 01:35:33;;;;;;;10.17;8.27;;;3.30;99.90;;;;;;5060339;28;20160;-89
2020/12/06 01:38:02;;;;;;;8.90;7.93;;;3.20;99.90;;;;;;5028744;28;20633;-91
2020/12/06 01:40:28;;;;;;;8.80;7.90;;;3.30;99.90;;;;;;5021190;28;20180;-90
2020/12/06 01:42:54;;;;;;;10.73;8.40;;;3.20;99.90;;;;;;5036886;28;20168;-91
2020/12/06 01:45:23;;;;;;;9.53;7.93;;;3.10;99.90;;;;;;5036611;28;20221;-89
2020/12/06 01:47:51;;;;;;;12.73;8.63;;;3.10;99.90;;;;;;5049036;28;20160;-91
2020/12/06 01:50:19;;;;;;;11.37;8.17;;;3.00;99.90;;;;;;5060280;28;20156;-91
2020/12/06 01:52:48;;;;;;;9.60;7.90;;;2.90;99.90;;;;;;5058901;28;20247;-90
2020/12/06 01:55:17;;;;;;;10.73;8.57;;;2.90;99.90;;;;;;5036775;28;20172;-90
2020/12/06 01:57:45;;;;;;;8.77;7.97;;;2.90;99.90;;;;;;5037254;28;20199;-90
2020/12/06 02:00:14;;;;;;;10.27;7.23;;;3.00;99.90;;;;;;5021369;28;20180;-91
2020/12/06 02:02:39;;;;;;;10.37;8.43;;;3.20;99.90;;;;;;5037066;28;20179;-90
2020/12/06 02:05:07;;;;;;;8.57;7.67;;;3.50;99.90;;;;;;5036933;28;20176;-90
2020/12/06 02:07:35;;;;;;;9.33;8.40;;;3.80;99.90;;;;;;5037116;28;20172;-91
2020/12/06 02:10:05;;;;;;;10.53;8.47;;;4.00;99.90;;;;;;5036724;28;20194;-92
2020/12/06 02:12:31;;;;;;;10.80;8.90;;;4.00;99.90;;;;;;5036581;28;20625;-90
2020/12/06 02:14:58;;;;;;;9.57;8.57;;;3.80;99.90;;;;;;5036231;28;20179;-90
2020/12/06 02:17:26;;;;;;;8.40;7.67;;;3.60;99.90;;;;;;5035968;28;20220;-89
2020/12/06 02:19:59;;;;;;;9.43;8.53;;;3.40;99.90;;;;;;5020320;28;20651;-89
2020/12/06 02:22:24;;;;;;;9.20;8.30;;;3.50;99.90;;;;;;5004515;28;20179;-89
2020/12/06 02:24:57;;;;;;;11.37;8.10;;;3.80;99.90;;;;;;5037462;28;20180;-89
2020/12/06 02:27:24;;;;;;;13.63;8.00;;;4.00;99.90;;;;;;5004429;28;20637;-89
2020/12/06 02:30:21;;;;;;;11.80;8.60;;;4.20;99.90;;;;;;5036305;28;20686;-89
2020/12/06 02:39:45;;;;;;;9.07;8.17;;;4.20;99.90;;;;;;4976959;28;20303;-88
2020/12/06 02:45:57;;;;;;;12.00;8.30;;;4.20;99.90;;;;;;4976633;28;20205;-90
2020/12/06 02:52:07;;;;;;;9.90;7.57;;;4.10;99.90;;;;;;4976284;28;20706;-89
2020/12/06 03:01:34;;;;;;;10.77;8.30;;;4.00;99.90;;;;;;4998278;28;20263;-89
2020/12/06 03:14:28;;;;;;;10.73;8.70;;;3.70;99.90;;;;;;5039239;28;20171;-89
2020/12/06 03:19:20;;;;;;;10.93;8.87;;;3.60;99.90;;;;;;5035190;28;20215;-91
2020/12/06 03:21:46;;;;;;;11.67;9.40;;;3.50;99.90;;;;;;5034416;28;20171;-91
2020/12/06 03:24:14;;;;;;;10.37;9.33;;;3.50;99.90;;;;;;5018235;28;20180;-90
2020/12/06 03:26:39;;;;;;;11.50;9.60;;;3.60;99.90;;;;;;5018215;28;20560;-90
2020/12/06 03:29:05;;;;;;;10.37;9.33;;;3.60;99.90;;;;;;5035565;28;20195;-91
2020/12/06 03:31:31;;;;;;;11.20;10.03;;;3.50;99.90;;;;;;5018444;28;20207;-90
2020/12/06 03:33:56;;;;;;;11.17;10.00;;;3.40;99.90;;;;;;5002392;28;20326;-91
2020/12/06 03:36:22;;;;;;;11.07;9.90;;;3.40;99.90;;;;;;5034741;28;20199;-90
2020/12/06 03:38:48;;;;;;;14.50;10.77;;;3.40;99.90;;;;;;5034911;28;20176;-90
2020/12/06 03:41:16;;;;;;;11.30;9.67;;;3.40;99.90;;;;;;5034619;28;20180;-91
2020/12/06 03:43:41;;;;;;;14.33;10.37;;;3.40;99.90;;;;;;5034682;28;20172;-90
2020/12/06 03:46:07;;;;;;;13.63;10.60;;;3.40;99.90;;;;;;5034218;28;20796;-91
2020/12/06 03:48:35;;;;;;;13.17;9.57;;;3.40;99.90;;;;;;5034687;28;20170;-91
2020/12/06 03:51:01;;;;;;;12.60;9.73;;;3.40;99.90;;;;;;5019138;28;20594;-91
2020/12/06 03:53:37;;;;;;;13.80;10.93;;;3.30;99.90;;;;;;5034601;28;20230;-90
2020/12/06 03:56:02;;;;;;;19.10;12.93;;;3.10;99.90;;;;;;5040013;28;20230;-90
2020/12/06 03:58:28;;;;;;;14.00;11.73;;;2.90;99.90;;;;;;5058062;28;20192;-91
2020/12/06 04:00:54;;;;;;;14.07;12.30;;;2.70;99.90;;;;;;5056215;28;20183;-91
2020/12/06 04:03:22;;;;;;;16.97;12.37;;;2.70;99.90;;;;;;5032454;28;20188;-90
2020/12/06 04:05:51;;;;;;;13.93;11.37;;;2.60;99.90;;;;;;5018735;28;20180;-91
2020/12/06 04:08:26;;;;;;;;;;;;;;;;;;;;;
2020/12/06 04:10:52;;;;;;;12.63;11.27;;;2.70;99.90;;;;;;5035255;28;20590;-90
2020/12/06 04:13:18;;;;;;;14.60;11.43;;;2.90;99.90;;;;;;5018690;28;20210;-91
2020/12/06 04:15:47;;;;;;;13.63;11.20;;;3.00;99.90;;;;;;5040605;28;20160;-90
2020/12/06 04:18:15;;;;;;;20.63;11.63;;;3.10;99.90;;;;;;5055332;28;20176;-90
2020/12/06 04:20:41;;;;;;;13.53;10.40;;;3.20;99.90;;;;;;5042329;28;20188;-90
2020/12/06 04:23:06;;;;;;;14.57;10.00;;;3.20;99.90;;;;;;5017406;28;20182;-91
2020/12/06 04:25:32;;;;;;;14.80;9.80;;;3.20;99.90;;;;;;5017705;28;20176;-90
2020/12/06 04:27:58;;;;;;;14.00;10.60;;;3.30;99.90;;;;;;5017449;28;20513;-90
2020/12/06 04:30:23;;;;;;;14.40;11.47;;;3.20;99.90;;;;;;5033747;28;20180;-90
2020/12/06 04:32:49;;;;;;;12.60;10.37;;;3.10;99.90;;;;;;5033695;28;20185;-91
2020/12/06 04:35:15;;;;;;;18.97;13.27;;;2.90;99.90;;;;;;5017265;28;20176;-91
2020/12/06 04:37:40;;;;;;;16.03;12.50;;;2.80;99.90;;;;;;5034642;28;20641;-91
2020/12/06 04:40:08;;;;;;;16.90;12.53;;;2.90;99.90;;;;;;5034919;28;20176;-91
2020/12/06 04:42:37;;;;;;;19.60;12.77;;;3.00;99.90;;;;;;5017881;28;20608;-91
2020/12/06 04:45:03;;;;;;;16.00;11.73;;;3.10;99.90;;;;;;5033796;28;20172;-91
2020/12/06 04:48:11;;;;;;;16.60;12.97;;;3.20;99.90;;;;;;5033790;28;20247;-91
2020/12/06 04:50:45;;;;;;;18.53;13.40;;;3.20;99.90;;;;;;5040212;28;20180;-90
2020/12/06 04:53:17;;;;;;;21.53;11.97;;;3.20;99.90;;;;;;5037466;28;20168;-91
2020/12/06 04:55:50;;;;;;;15.17;12.57;;;3.30;99.90;;;;;;5037658;28;20255;-90
2020/12/06 04:58:25;;;;;;;17.57;12.90;;;3.20;99.90;;;;;;5038129;28;20180;-91
2020/12/06 05:00:53;;;;;;;15.97;12.67;;;3.10;99.90;;;;;;5037352;28;20618;-91
2020/12/06 05:03:27;;;;;;;21.37;12.60;;;2.90;99.90;;;;;;5037280;28;20176;-91
2020/12/06 05:05:54;;;;;;;20.43;13.20;;;2.60;99.90;;;;;;5037139;28;20636;-91
2020/12/06 05:08:24;;;;;;;20.97;13.43;;;2.20;99.90;;;;;;5037270;28;20238;-90
2020/12/06 05:10:51;;;;;;;19.97;13.03;;;1.90;99.90;;;;;;5037415;28;20262;-90
2020/12/06 05:13:19;;;;;;;18.20;13.47;;;1.60;99.90;;;;;;5036709;28;20172;-91
2020/12/06 05:15:48;;;;;;;18.10;12.83;;;1.60;99.90;;;;;;5020189;28;20180;-91
2020/12/06 05:18:14;;;;;;;18.60;13.00;;;1.60;99.90;;;;;;5021615;28;20184;-89
2020/12/06 05:20:40;;;;;;;14.37;12.73;;;1.60;99.90;;;;;;5037012;28;20187;-91
2020/12/06 05:26:30;;;;;;;15.23;12.37;;;1.60;99.90;;;;;;5037749;28;20199;-90
2020/12/06 05:32:27;;;;;;;16.10;12.60;;;1.70;99.90;;;;;;5037488;28;20156;-91
2020/12/06 05:34:53;;;;;;;16.97;13.37;;;1.80;99.90;;;;;;5036923;28;20175;-90
2020/12/06 05:37:18;;;;;;;20.87;13.90;;;1.80;99.90;;;;;;5020286;28;20200;-91
2020/12/06 05:39:44;;;;;;;15.73;11.87;;;1.90;99.90;;;;;;5020510;28;20183;-91
2020/12/06 05:42:10;;;;;;;14.70;12.27;;;1.90;99.90;;;;;;5020212;28;20192;-91
2020/12/06 05:44:41;;;;;;;16.50;12.07;;;1.90;99.90;;;;;;5019921;28;20176;-90
2020/12/06 05:47:16;;;;;;;16.03;12.53;;;2.00;99.90;;;;;;5036302;28;20652;-90
2020/12/06 05:49:44;;;;;;;13.83;11.87;;;2.30;99.90;;;;;;5036993;28;20156;-91
2020/12/06 05:52:10;;;;;;;15.80;12.17;;;2.50;99.90;;;;;;5036542;28;20172;-91
2020/12/06 05:58:00;;;;;;;17.80;11.87;;;2.60;99.90;;;;;;5037109;28;20191;-90
2020/12/06 06:03:05;;;;;;;16.83;11.87;;;2.50;99.90;;;;;;5034881;28;20287;-92
2020/12/06 06:06:08;;;;;;;14.40;12.17;;;2.30;99.90;;;;;;5004476;28;20195;-91
2020/12/06 06:08:38;;;;;;;14.07;11.23;;;2.40;99.90;;;;;;5036696;28;20282;-91
2020/12/06 06:14:30;;;;;;;12.90;10.33;;;2.30;99.90;;;;;;5036867;28;20152;-91
2020/12/06 06:16:57;;;;;;;18.87;11.93;;;2.30;99.90;;;;;;5035779;28;20289;-90
2020/12/06 06:19:23;;;;;;;16.93;11.73;;;2.40;99.90;;;;;;5019834;28;20228;-91
2020/12/06 06:25:15;;;;;;;13.73;11.03;;;2.60;99.90;;;;;;5058952;28;20179;-91
2020/12/06 06:31:04;;;;;;;13.20;11.30;;;2.70;99.90;;;;;;5042946;28;20152;-90
2020/12/06 06:33:33;;;;;;;21.47;12.27;;;3.00;99.90;;;;;;5035127;28;20202;-91
2020/12/06 06:36:00;;;;;;;13.37;11.97;;;3.20;99.90;;;;;;5036618;28;20250;-91
2020/12/06 06:38:28;;;;;;;13.30;10.77;;;3.40;99.90;;;;;;5036302;28;20508;-91
2020/12/06 06:44:20;;;;;;;13.20;11.43;;;3.80;99.90;;;;;;4999815;28;20189;-90
2020/12/06 06:50:11;;;;;;;15.90;11.77;;;3.90;99.90;;;;;;5036554;28;20182;-90
2020/12/06 06:52:41;;;;;;;21.07;13.27;;;3.90;99.90;;;;;;5035108;28;20183;-90
2020/12/06 06:55:07;;;;;;;18.57;12.77;;;4.00;99.90;;;;;;5035926;28;20172;-90
2020/12/06 06:57:33;;;;;;;17.53;12.70;;;4.00;99.90;;;;;;5036217;28;20295;-90
2020/12/06 07:00:00;;;;;;;17.23;13.20;;;4.00;99.90;;;;;;5023756;28;20210;-90
2020/12/06 07:05:50;;;;;;;16.77;12.90;;;4.10;99.90;;;;;;5038762;28;20194;-90
2020/12/06 07:11:43;;;;;;;14.57;12.60;;;4.00;99.90;;;;;;5040871;28;20206;-90
2020/12/06 07:17:30;;;;;;;15.97;12.13;;;4.00;99.90;;;;;;5035036;28;20218;-84
2020/12/06 07:19:56;;;;;;;17.43;12.83;;;3.90;99.90;;;;;;5018224;28;20641;-84
2020/12/06 07:22:22;;;;;;;14.23;12.33;;;3.80;99.90;;;;;;5003314;28;20230;-84
2020/12/06 07:24:47;;;;;;;15.57;12.33;;;3.80;99.90;;;;;;4999703;28;20430;-84
2020/12/06 07:27:13;;;;;;;20.27;13.07;;;3.80;99.90;;;;;;5019352;28;20202;-83
2020/12/06 07:29:41;;;;;;;17.93;12.47;;;3.80;99.90;;;;;;4985043;28;20208;-84
2020/12/06 07:32:08;;;;;;;16.77;12.50;;;3.90;99.90;;;;;;5024634;28;20207;-84
2020/12/06 07:34:34;;;;;;;23.27;13.23;;;4.00;99.90;;;;;;5025715;28;20184;-87
2020/12/06 07:37:00;;;;;;;18.37;12.73;;;3.90;99.90;;;;;;5033804;28;20206;-87
2020/12/06 07:39:26;;;;;;;15.37;12.43;;;4.00;99.90;;;;;;5034010;28;20640;-88
2020/12/06 07:41:52;;;;;;;13.13;11.63;;;4.00;99.90;;;;;;5033045;28;20188;-88
2020/12/06 07:44:18;;;;;;;15.17;12.83;;;4.00;99.90;;;;;;5034742;28;20202;-87
2020/12/06 07:46:44;;;;;;;17.20;12.50;;;4.00;99.90;;;;;;5018355;28;20187;-88
2020/12/06 07:49:10;;;;;;;15.30;12.47;;;3.90;99.90;;;;;;5033064;28;20180;-87
2020/12/06 07:51:35;;;;;;;13.00;11.70;;;4.10;99.90;;;;;;5032517;28;20183;-87
2020/12/06 07:54:02;;;;;;;14.43;12.20;;;4.10;99.90;;;;;;5029789;28;20184;-85
2020/12/06 07:56:32;;;;;;;20.00;14.07;;;4.20;99.90;;;;;;5015939;28;20361;-87
2020/12/06 07:59:07;;;;;;;18.53;13.57;;;4.30;99.90;;;;;;5032383;28;20268;-87
2020/12/06 08:01:34;;;;;;;15.63;12.23;;;4.30;99.90;;;;;;5031039;28;20182;-88
2020/12/06 08:04:01;;;;;;;15.30;13.03;;;4.40;99.90;;;;;;5017499;28;20187;-84
2020/12/06 08:06:28;;;;;;;21.73;12.77;;;4.50;99.90;;;;;;5026672;28;20188;-88
2020/12/06 08:09:03;;;;;;;16.07;12.60;;;4.50;99.90;;;;;;5033812;28;20180;-88
2020/12/06 08:11:34;;;;;;;11.67;10.47;;;4.60;99.90;;;;;;5033569;28;20219;-88
2020/12/06 08:14:00;;;;;;;13.13;9.87;;;4.60;99.90;;;;;;5035236;28;20267;-87
2020/12/06 08:16:26;;;;;;;12.40;11.10;;;4.60;99.90;;;;;;5033882;28;20227;-88
2020/12/06 08:19:04;;;;;;;15.70;10.53;;;4.60;99.90;;;;;;5037124;28;20184;-86
2020/12/06 08:22:03;;;;;;;13.83;11.07;;;4.60;99.90;;;;;;5036543;28;20222;-88
2020/12/06 08:24:33;;;;;;;14.33;11.43;;;4.60;99.90;;;;;;5033024;28;20251;-86
2020/12/06 08:27:00;;;;;;;14.63;11.17;;;4.70;99.90;;;;;;5036013;28;21134;-86
2020/12/06 08:29:43;;;;;;;14.23;11.40;;;4.70;99.90;;;;;;5038654;28;20589;-86
2020/12/06 08:32:10;;;;;;;12.50;10.50;;;4.60;99.90;;;;;;5038348;28;20244;-83
2020/12/06 08:34:36;;;;;;;12.57;10.83;;;4.50;99.90;;;;;;5037783;28;20182;-83
2020/12/06 08:37:16;;;;;;;17.43;12.07;;;4.60;99.90;;;;;;5038824;28;20275;-87
2020/12/06 08:39:42;;;;;;;13.07;10.87;;;4.70;99.90;;;;;;5041438;28;20241;-87
2020/12/06 08:42:19;;;;;;;13.00;11.53;;;4.90;99.90;;;;;;5025299;28;20203;-87
2020/12/06 08:44:56;;;;;;;13.67;11.40;;;4.90;99.90;;;;;;5033442;28;20195;-84
2020/12/06 08:47:24;;;;;;;15.63;11.73;;;5.00;99.90;;;;;;5041031;28;20542;-85
2020/12/06 08:50:22;;;;;;;18.13;13.53;;;4.40;99.90;;;;;;5037908;28;20207;-83
2020/12/06 08:52:56;;;;;;;19.03;14.03;;;4.40;99.90;;;;;;4995395;28;20267;-85
2020/12/06 08:55:36;;;;;;;27.53;14.97;;;4.30;99.90;;;;;;5052045;28;20164;-86
2020/12/06 08:58:02;;;;;;;21.83;13.90;;;4.50;99.90;;;;;;5043140;28;20218;-89
2020/12/06 09:00:28;;;;;;;20.17;14.47;;;4.30;99.90;;;;;;5037569;28;20179;-88
2020/12/06 09:02:59;;;;;;;17.13;14.47;;;4.30;99.90;;;;;;5038418;28;20272;-89
2020/12/06 09:05:24;;;;;;;20.03;13.87;;;4.00;99.90;;;;;;5040194;28;20249;-88
2020/12/06 09:07:50;;;;;;;17.80;13.80;;;3.30;99.90;;;;;;5052672;28;20164;-84
2020/12/06 09:10:16;;;;;;;19.00;14.07;;;3.00;99.90;;;;;;5057576;28;20533;-89
2020/12/06 09:12:41;;;;;;;17.73;14.60;;;2.80;99.90;;;;;;5040091;28;20274;-88
2020/12/06 09:15:07;;;;;;;21.40;15.33;;;2.70;99.90;;;;;;5002464;28;20226;-89
2020/12/06 09:17:34;;;;;;;21.47;15.50;;;2.60;99.90;;;;;;5039018;28;20211;-90
2020/12/06 09:19:59;;;;;;;19.47;15.30;;;2.70;99.90;;;;;;5039564;28;20520;-89
2020/12/06 09:22:25;;;;;;;21.30;15.67;;;2.80;99.90;;;;;;5037082;28;20215;-85
2020/12/06 09:24:51;;;;;;;22.70;16.10;;;2.90;99.90;;;;;;5038151;28;20180;-89
2020/12/06 09:27:17;;;;;;;22.47;16.17;;;3.10;99.90;;;;;;5011047;28;20275;-87
2020/12/06 09:29:42;;;;;;;19.90;15.80;;;3.40;99.90;;;;;;5031447;28;20175;-89
2020/12/06 09:32:08;;;;;;;22.87;16.67;;;3.50;99.90;;;;;;5037215;28;20604;-89
2020/12/06 09:34:33;;;;;;;29.70;19.00;;;4.00;99.90;;;;;;5039034;28;20179;-89
2020/12/06 09:36:59;;;;;;;31.27;20.13;;;4.50;99.90;;;;;;5043976;28;20214;-89
2020/12/06 09:39:25;;;;;;;27.57;19.43;;;4.90;99.90;;;;;;5045286;28;20693;-90
2020/12/06 09:41:50;;;;;;;27.20;20.60;;;5.20;99.90;;;;;;5043247;28;20176;-88
2020/12/06 09:44:17;;;;;;;26.63;19.93;;;5.60;99.90;;;;;;5044751;28;20187;-84
2020/12/06 09:46:42;;;;;;;30.37;19.47;;;5.90;99.90;;;;;;5052834;28;20202;-89
2020/12/06 09:49:08;;;;;;;26.83;18.20;;;6.20;99.90;;;;;;5042927;28;20183;-84
2020/12/06 09:51:34;;;;;;;27.77;20.90;;;6.50;99.90;;;;;;5043306;28;20183;-86
2020/12/06 09:54:00;;;;;;;29.20;21.10;;;6.70;99.90;;;;;;5039893;28;20180;-74
2020/12/06 09:56:29;;;;;;;28.17;20.73;;;6.90;99.90;;;;;;5035118;28;20692;-89
2020/12/06 09:58:56;;;;;;;26.73;19.63;;;7.10;99.90;;;;;;5043339;28;20184;-85
2020/12/06 10:01:24;;;;;;;29.33;20.73;;;7.40;99.90;;;;;;5027168;28;20188;-85
2020/12/06 10:03:50;;;;;;;26.97;19.13;;;7.60;99.90;;;;;;5042636;28;20176;-85
2020/12/06 10:06:27;;;;;;;27.63;19.97;;;7.80;99.90;;;;;;5043037;28;20545;-85
2020/12/06 10:08:54;;;;;;;24.47;18.70;;;7.90;99.90;;;;;;5042667;28;20675;-85
2020/12/06 10:11:21;;;;;;;25.43;18.53;;;8.00;99.90;;;;;;5040271;28;20253;-84
2020/12/06 10:13:46;;;;;;;21.93;18.03;;;8.00;99.90;;;;;;5023681;28;20184;-85
2020/12/06 10:16:14;;;;;;;28.50;19.50;;;8.10;99.90;;;;;;5007426;28;20297;-85
2020/12/06 10:18:40;;;;;;;29.63;20.33;;;8.20;99.90;;;;;;5040457;28;20235;-84
2020/12/06 10:21:05;;;;;;;29.43;21.57;;;8.20;99.90;;;;;;5041343;28;20176;-85
2020/12/06 10:23:32;;;;;;;35.07;22.50;;;8.30;99.90;;;;;;5035449;28;20179;-85
2020/12/06 10:25:58;;;;;;;33.83;22.50;;;8.40;99.90;;;;;;5033936;28;20190;-85
2020/12/06 10:28:23;;;;;;;33.77;22.73;;;8.40;99.90;;;;;;5006270;28;20263;-85
2020/12/06 10:30:49;;;;;;;39.37;22.10;;;8.50;99.90;;;;;;5022685;28;20208;-85
2020/12/06 10:33:15;;;;;;;34.50;23.70;;;8.60;99.90;;;;;;5022664;28;20537;-86
2020/12/06 10:35:44;;;;;;;36.23;23.30;;;8.60;99.90;;;;;;5037608;28;20180;-84
2020/12/06 10:38:10;;;;;;;30.97;23.77;;;8.60;99.90;;;;;;5003532;28;20275;-84
2020/12/06 10:40:36;;;;;;;35.03;24.30;;;8.50;99.90;;;;;;5035884;28;20222;-85
2020/12/06 10:43:02;;;;;;;33.40;23.93;;;8.40;99.90;;;;;;5034017;28;20184;-85
2020/12/06 10:45:27;;;;;;;40.90;23.83;;;8.40;99.90;;;;;;5018378;28;20652;-85
2020/12/06 10:47:53;;;;;;;33.97;25.13;;;8.40;99.90;;;;;;5016699;28;20184;-85
2020/12/06 10:50:18;;;;;;;38.63;25.20;;;8.50;99.90;;;;;;5026664;28;20626;-85
2020/12/06 10:52:44;;;;;;;33.80;23.60;;;8.70;99.90;;;;;;5034417;28;20191;-84
2020/12/06 10:55:10;;;;;;;33.03;23.53;;;8.80;99.90;;;;;;5034554;28;20664;-84
2020/12/06 10:57:36;;;;;;;33.57;23.60;;;8.90;99.90;;;;;;5016682;28;20212;-85
2020/12/06 11:00:04;;;;;;;37.60;24.30;;;9.00;99.90;;;;;;5033753;28;20238;-83
2020/12/06 11:02:30;;;;;;;29.37;21.97;;;9.20;99.90;;;;;;5031515;28;20259;-83
2020/12/06 11:04:55;;;;;;;30.33;23.40;;;9.30;99.90;;;;;;5017858;28;20238;-84
2020/12/06 11:07:21;;;;;;;32.20;23.07;;;9.20;99.90;;;;;;5031657;28;20208;-84
2020/12/06 11:09:46;;;;;;;35.70;23.47;;;9.30;99.90;;;;;;5034463;28;20176;-84
2020/12/06 11:12:12;;;;;;;30.17;22.70;;;9.30;99.90;;;;;;5015506;28;20198;-86
2020/12/06 11:14:38;;;;;;;41.20;22.17;;;9.30;99.90;;;;;;5030046;28;20189;-86
2020/12/06 11:17:03;;;;;;;28.25;21.65;;;9.30;99.90;;;;;;5030214;28;20272;-82
2020/12/06 11:19:29;;;;;;;28.77;22.43;;;9.30;99.90;;;;;;5029766;28;20192;-82
2020/12/06 11:21:54;;;;;;;28.43;21.83;;;9.20;99.90;;;;;;5029677;28;20209;-82
2020/12/06 11:24:20;;;;;;;28.53;20.73;;;9.20;99.90;;;;;;5002511;28;20312;-84
2020/12/06 11:26:46;;;;;;;32.77;22.90;;;9.20;99.90;;;;;;5037661;28;20191;-84
2020/12/06 11:29:12;;;;;;;33.23;21.47;;;9.10;99.90;;;;;;5038782;28;20172;-90
2020/12/06 11:31:39;;;;;;;24.80;19.92;;;9.00;99.90;;;;;;5023008;28;20160;-90
2020/12/06 11:34:05;;;;;;;25.93;19.63;;;9.00;99.90;;;;;;5045853;28;20176;-90
2020/12/06 11:36:31;;;;;;;30.60;19.80;;;8.80;99.90;;;;;;5057130;28;20259;-80
2020/12/06 11:38:57;;;;;;;30.80;19.67;;;8.70;99.90;;;;;;5035993;28;20183;-91
2020/12/06 11:41:24;;;;;;;24.70;19.43;;;8.70;99.90;;;;;;5038169;28;20176;-86
2020/12/06 11:43:50;;;;;;;25.83;19.77;;;8.80;99.90;;;;;;5037775;28;20175;-90
2020/12/06 11:46:16;;;;;;;29.80;22.23;;;8.90;99.90;;;;;;4995000;28;20527;-87
2020/12/06 11:48:41;;;;;;;28.25;20.15;;;8.80;99.90;;;;;;5010243;28;20515;-88
2020/12/06 11:51:07;;;;;;;23.50;18.88;;;8.90;99.90;;;;;;5034727;28;20213;-88
2020/12/06 11:53:34;;;;;;;25.40;19.67;;;8.90;99.90;;;;;;4999836;28;20181;-88
2020/12/06 11:56:00;;;;;;;25.60;20.53;;;8.90;99.90;;;;;;5035119;28;20176;-85
2020/12/06 11:58:26;;;;;;;25.87;19.50;;;8.90;99.90;;;;;;5034396;28;20284;-89
2020/12/06 12:00:51;;;;;;;30.57;19.97;;;9.00;99.90;;;;;;5019521;28;20172;-89
2020/12/06 12:03:17;;;;;;;29.93;22.30;;;8.90;99.90;;;;;;5032460;28;20409;-89
2020/12/06 12:05:43;;;;;;;28.57;21.17;;;8.80;99.90;;;;;;5034547;28;20183;-88
2020/12/06 12:08:09;;;;;;;27.63;21.63;;;9.00;99.90;;;;;;5035137;28;20176;-90
2020/12/06 12:10:36;;;;;;;32.13;22.03;;;9.00;99.90;;;;;;5034142;28;20175;-87
2020/12/06 12:13:02;;;;;;;31.53;20.93;;;9.00;99.90;;;;;;5034086;28;20187;-89
2020/12/06 12:15:35;;;;;;;31.60;22.77;;;8.90;99.90;;;;;;5034070;28;20168;-89
2020/12/06 12:18:16;;;;;;;;;;;;;;;;;;;;;
2020/12/06 12:20:42;;;;;;;30.13;22.07;;;8.80;99.90;;;;;;5034892;28;20192;-88
2020/12/06 12:23:08;;;;;;;34.83;23.37;;;8.80;99.90;;;;;;5035458;28;20251;-88
2020/12/06 12:25:34;;;;;;;31.73;24.43;;;9.00;99.90;;;;;;5033108;28;20168;-89
2020/12/06 12:28:00;;;;;;;35.47;25.13;;;9.00;99.90;;;;;;5033734;28;20255;-88
2020/12/06 12:30:26;;;;;;;34.23;24.60;;;9.10;99.90;;;;;;5016934;28;20276;-90
2020/12/06 12:32:52;;;;;;;34.57;22.63;;;9.20;99.90;;;;;;5000833;28;20531;-86
2020/12/06 12:35:18;;;;;;;37.77;25.03;;;9.30;99.90;;;;;;5033407;28;20176;-88
2020/12/06 12:37:47;;;;;;;38.40;24.07;;;9.30;99.90;;;;;;5033143;28;20290;-89
2020/12/06 12:40:13;;;;;;;34.43;24.40;;;9.30;99.90;;;;;;5017590;28;20184;-89
2020/12/06 12:42:39;;;;;;;41.77;27.43;;;9.00;99.90;;;;;;5000247;28;20226;-88
2020/12/06 12:45:04;;;;;;;45.70;29.57;;;8.50;99.90;;;;;;5000559;28;20176;-87
2020/12/06 12:47:32;;;;;;;44.07;30.33;;;8.30;99.90;;;;;;5017265;28;20629;-87
2020/12/06 12:49:59;;;;;;;47.80;30.47;;;7.90;99.90;;;;;;5033447;28;20175;-88
2020/12/06 12:52:25;;;;;;;49.00;31.50;;;7.70;99.90;;;;;;5034356;28;20259;-89
2020/12/06 12:54:51;;;;;;;53.80;33.10;;;7.30;99.90;;;;;;5033966;28;20203;-89
2020/12/06 12:57:20;;;;;;;51.80;32.80;;;7.50;99.90;;;;;;5018511;28;20199;-88
2020/12/06 12:59:49;;;;;;;48.73;31.13;;;7.60;99.90;;;;;;5033604;28;20168;-87
2020/12/06 13:02:14;;;;;;;48.27;32.20;;;7.10;99.90;;;;;;5033230;28;20164;-88
2020/12/06 13:04:40;;;;;;;45.93;30.33;;;7.20;99.90;;;;;;5033271;28;20227;-89
2020/12/06 13:07:07;;;;;;;42.33;29.57;;;7.30;99.90;;;;;;5016918;28;20180;-88
2020/12/06 13:09:33;;;;;;;42.23;30.00;;;7.70;99.90;;;;;;5016589;28;20211;-88
2020/12/06 13:11:59;;;;;;;43.60;30.17;;;8.10;99.90;;;;;;5035471;28;20216;-84
2020/12/06 13:14:25;;;;;;;42.20;29.07;;;8.40;99.90;;;;;;5019489;28;20238;-84
2020/12/06 13:16:51;;;;;;;41.57;27.50;;;7.90;99.90;;;;;;5019805;28;20665;-84
2020/12/06 13:19:17;;;;;;;39.47;28.60;;;7.60;99.90;;;;;;5036650;28;20175;-85
2020/12/06 13:21:42;;;;;;;40.17;29.17;;;7.70;99.90;;;;;;5036222;28;20175;-85
2020/12/06 13:24:08;;;;;;;47.03;27.27;;;7.90;99.90;;;;;;5020471;28;20180;-83
2020/12/06 13:26:34;;;;;;;42.97;28.30;;;7.80;99.90;;;;;;5035441;28;20233;-85
2020/12/06 13:28:59;;;;;;;45.90;29.40;;;7.50;99.90;;;;;;5021158;28;20165;-84
2020/12/06 13:31:25;;;;;;;43.97;28.47;;;7.50;99.90;;;;;;5040329;28;20176;-84
2020/12/06 13:33:51;;;;;;;46.13;28.57;;;7.50;99.90;;;;;;5022310;28;20172;-84
2020/12/06 13:36:22;;;;;;;41.47;28.77;;;7.60;99.90;;;;;;5040803;28;20270;-83
2020/12/06 13:38:49;;;;;;;48.63;29.30;;;7.10;99.90;;;;;;5036741;28;20183;-83
2020/12/06 13:41:15;;;;;;;52.43;29.40;;;6.80;99.90;;;;;;5043008;28;20184;-84
2020/12/06 13:43:42;;;;;;;43.20;29.73;;;7.00;99.90;;;;;;5033278;28;20203;-85
2020/12/06 13:46:08;;;;;;;42.87;29.20;;;7.30;99.90;;;;;;5055428;28;20246;-85
2020/12/06 13:48:35;;;;;;;44.73;29.50;;;7.50;99.90;;;;;;5050363;28;20172;-84
2020/12/06 13:51:01;;;;;;;41.87;29.03;;;7.80;99.90;;;;;;5042924;28;20172;-84
2020/12/06 13:53:27;;;;;;;45.90;28.73;;;8.10;99.90;;;;;;5038970;28;20182;-84
2020/12/06 13:55:53;;;;;;;38.27;27.73;;;8.20;99.90;;;;;;5019702;28;20592;-85
2020/12/06 13:58:18;;;;;;;41.60;27.83;;;8.30;99.90;;;;;;5020312;28;20278;-84
2020/12/06 14:00:44;;;;;;;41.87;29.30;;;8.30;99.90;;;;;;5027755;28;20228;-84
2020/12/06 14:03:09;;;;;;;44.40;29.23;;;8.40;99.90;;;;;;5034451;28;20179;-84
2020/12/06 14:05:35;;;;;;;44.23;28.83;;;8.40;99.90;;;;;;5039064;28;20169;-84
2020/12/06 14:08:08;;;;;;;52.33;34.40;;;8.40;99.90;;;;;;5017028;28;20232;-82